Garland's Hourly Summary for Monday, May 14, 2018
Hour Temp
(f)
RH
(%)
Solar Rad.
(MJ/m2)
Rainfall
(in)
Wind
(mph)
5/14/2018 12:00 AM 78 60 0 0 6.04
5/14/2018 1:00 AM 76 63 0 0 6.01
5/14/2018 2:00 AM 76 64 0 0 5.29
5/14/2018 3:00 AM 75 69 0 0 4.39
5/14/2018 4:00 AM 73 73 0 0 3.45
5/14/2018 5:00 AM 73 77 0 0 5.1
5/14/2018 6:00 AM 72 78 0 0 5.26
5/14/2018 7:00 AM 71 82 0.02 0 7.25
5/14/2018 8:00 AM 71 79 0.31 0 6.45
5/14/2018 9:00 AM 73 74 0.98 0 7.82
5/14/2018 10:00 AM 74 70 1.07 0 10.14
5/14/2018 11:00 AM 76 64 1.89 0 10.32
5/14/2018 12:00 PM 79 57 2.48 0 9.36
5/14/2018 1:00 PM 81 51 2.28 0 9.31
5/14/2018 2:00 PM 83 48 2.7 0 10.19
5/14/2018 3:00 PM 85 45 3.1 0 9.84
5/14/2018 4:00 PM 85 42 2.8 0 9.56
5/14/2018 5:00 PM 85 41 1.62 0 8.85
5/14/2018 6:00 PM 85 43 1.38 0 8.49
5/14/2018 7:00 PM 84 46 0.71 0 9.85
5/14/2018 8:00 PM 82 48 0.14 0 9.21
5/14/2018 9:00 PM 80 56 0.01 0 8
5/14/2018 10:00 PM 79 61 0 0 6.07
5/14/2018 11:00 PM 78 61 0 0 7.15
Data Summary 78 60 21.49 0.00 7.64